Aviation Digital Data Service (ADDS)

Output produced by METARs form (1323 UTC 21 August 2019)
found at http://www.aviationweather.gov/metar/data/
 
Forecast for: WARR (JUANDA , ID)
Text: TAF WARR 211100Z 2112/2212 10010KT 8000 FEW020
Forecast period: 1200 to 1700 UTC 21 August 2019
Forecast type: FROM: standard forecast or significant change
Winds: from the E (100 degrees) at 12 MPH (10 knots; 5.1 m/s)
Visibility: 5 miles (8 km)
Ceiling: at least 12,000 feet AGL
Clouds: few clouds at 2000 feet AGL
Weather: no significant weather forecast for this period
Text: BECMG 2117/2119 26004KT 4000 HZ
Forecast period: 1700 UTC 21 August 2019 to 0000 UTC 22 August 2019
Forecast type: BECOMING: Conditions expected to become as follows by 1900 UTC 21 August 2019
Winds: from the W (260 degrees) at 5 MPH (4 knots; 2.1 m/s)
Visibility: 2.49 miles (4.01 km)
Ceiling: at least 12,000 feet AGL
Clouds: few clouds at 2000 feet AGL
Weather: HZ  (haze)
Text: BECMG 2200/2202 11012KT 9999 NSW
Forecast period: 0000 to 1200 UTC 22 August 2019
Forecast type: BECOMING: Conditions expected to become as follows by 0200 UTC 22 August 2019
Winds: from the ESE (110 degrees) at 14 MPH (12 knots; 6.2 m/s)
Visibility: 6 or more miles 10+ km)
Ceiling: at least 12,000 feet AGL
Clouds: few clouds at 2000 feet AGL
Weather: NSW  (no significant weather)